This is the latest recevied weather packets stored in our database for station/object OK1JIL-13. If no packets are shown the sender has not sent any weather packets the latest 10 day(s).
| Time | Temp. | Humidity | Pressure | Rain* | Wind** | Luminosity | Snow |
|---|---|---|---|---|---|---|---|
| 1778123399 | 13.33° C | 68% | 1008.7 hPa | - | - | - | - |
| 1778122799 | 12.78° C | 70% | 1008.8 hPa | - | - | - | - |
| 1778122199 | 12.78° C | 68% | 1008.7 hPa | - | - | - | - |
| 1778121599 | 13.33° C | 67% | 1008.6 hPa | - | - | - | - |
| 1778120999 | 13.33° C | 68% | 1008.7 hPa | - | - | - | - |
| 1778120399 | 13.33° C | 67% | 1008.6 hPa | - | - | - | - |
| 1778119799 | 12.78° C | 70% | 1008.6 hPa | - | - | - | - |
| 1778119199 | 12.22° C | 70% | 1008.6 hPa | - | - | - | - |
| 1778118599 | 13.89° C | 65% | 1008.6 hPa | - | - | - | - |
| 1778117999 | 13.89° C | 65% | 1008.5 hPa | - | - | - | - |
| 1778117399 | 13.89° C | 65% | 1008.5 hPa | - | - | - | - |
| 1778116799 | 13.89° C | 65% | 1008.4 hPa | - | - | - | - |
| 1778116199 | 13.33° C | 66% | 1008.5 hPa | - | - | - | - |
| 1778115599 | 12.22° C | 70% | 1008.4 hPa | - | - | - | - |
| 1778114999 | 12.78° C | 68% | 1008.1 hPa | - | - | - | - |
| 1778114399 | 11.67° C | 70% | 1007.8 hPa | - | - | - | - |
| 1778113799 | 12.22° C | 67% | 1007.4 hPa | - | - | - | - |
| 1778113199 | 12.22° C | 66% | 1007.3 hPa | - | - | - | - |
| 1778112601 | 12.78° C | 63% | 1007.3 hPa | - | - | - | - |
| 1778111998 | 13.33° C | 63% | 1007.4 hPa | - | - | - | - |
| 1778111397 | 13.89° C | 65% | 1007.5 hPa | - | - | - | - |
| 1778110798 | 12.78° C | 68% | 1007.6 hPa | - | - | - | - |
| 1778110198 | 13.33° C | 66% | 1008 hPa | - | - | - | - |
| 1778109599 | 13.89° C | 64% | 1008.6 hPa | - | - | - | - |
| 1778108997 | 13.89° C | 64% | 1008.9 hPa | - | - | - | - |
* Rain since midnight (hover to see other rain measurements)
** Current wind speed in m/s (hover to see current wind gust speed)